createdAt,value
2023-01-02T00:04:40.989Z,66.11
2023-01-02T00:09:32.714Z,66.08
2023-01-02T00:14:24.269Z,66.24
2023-01-02T00:19:15.862Z,65.41
2023-01-02T00:24:07.800Z,64.53
2023-01-02T00:29:01.216Z,64.95
2023-01-02T00:33:52.919Z,64.76
2023-01-02T00:38:45.179Z,64.75
2023-01-02T00:43:37.296Z,64.87
2023-01-02T00:48:28.823Z,64.91
2023-01-02T00:53:20.457Z,64.72
2023-01-02T00:58:12.969Z,64.82
2023-01-02T01:03:04.905Z,64.61
2023-01-02T01:07:57.381Z,63.92
2023-01-02T01:12:49.216Z,63.58
2023-01-02T01:17:40.836Z,63.81
2023-01-02T01:22:32.454Z,63.55
2023-01-02T01:27:24.132Z,63.63
2023-01-02T01:32:15.707Z,63.74
2023-01-02T01:37:07.298Z,63.26
2023-01-02T01:42:00.312Z,63.44
2023-01-02T01:46:51.891Z,62.91
2023-01-02T01:51:49.659Z,62.99
2023-01-02T01:56:52.073Z,62.43
2023-01-02T02:01:44.441Z,62.38
2023-01-02T02:06:38.894Z,62.27
2023-01-02T02:11:30.870Z,61.55
2023-01-02T02:16:34.287Z,61.57
2023-01-02T02:21:38.060Z,61.56
2023-01-02T02:27:08.142Z,61.16
2023-01-02T02:32:20.603Z,61.23
2023-01-02T02:37:17.995Z,61.24
2023-01-02T02:42:48.331Z,61.62
2023-01-02T02:47:52.015Z,61.31
2023-01-02T02:52:48.868Z,61.57
2023-01-02T02:57:42.791Z,61.41
2023-01-02T03:02:34.961Z,61.46
2023-01-02T03:07:39.745Z,61.15
2023-01-02T03:12:43.758Z,60.69
2023-01-02T03:17:50.349Z,61.14
2023-01-02T03:22:49.364Z,61.07
2023-01-02T03:27:46.488Z,60.96
2023-01-02T03:32:43.747Z,61.25
2023-01-02T03:37:41.078Z,61.22
2023-01-02T03:42:37.391Z,60.83
2023-01-02T03:47:53.878Z,61.01
2023-01-02T03:52:45.586Z,60.85
2023-01-02T03:57:59.891Z,60.51
2023-01-02T04:03:10.839Z,60.29
2023-01-02T04:08:10.496Z,60.50
2023-01-02T04:13:09.886Z,60.41
2023-01-02T04:18:08.452Z,59.91
2023-01-02T04:23:11.848Z,60.31
2023-01-02T04:28:26.845Z,60.11
2023-01-02T04:33:22.139Z,60.20
2023-01-02T04:38:13.757Z,60.18
2023-01-02T04:43:12.303Z,60.23
2023-01-02T04:48:04.190Z,59.90
2023-01-02T04:52:55.880Z,59.64
2023-01-02T04:57:47.502Z,59.32
2023-01-02T05:02:39.845Z,59.62
2023-01-02T05:07:33.532Z,59.63
2023-01-02T05:12:25.206Z,59.29
2023-01-02T05:17:17.032Z,59.72
2023-01-02T05:22:30.404Z,59.76
2023-01-02T05:27:22.058Z,59.64
2023-01-02T05:32:13.719Z,59.24
2023-01-02T05:37:05.284Z,59.58
2023-01-02T05:41:56.924Z,59.35
2023-01-02T05:46:48.586Z,59.73
2023-01-02T05:51:40.221Z,59.61
2023-01-02T05:56:31.958Z,59.72
2023-01-02T06:01:27.238Z,59.82
2023-01-02T06:06:21.245Z,59.83
2023-01-02T06:11:12.930Z,60.27
2023-01-02T06:16:06.812Z,60.36
2023-01-02T06:21:03.727Z,60.38
2023-01-02T06:25:55.415Z,60.42
2023-01-02T06:30:47.040Z,60.42
2023-01-02T06:35:38.861Z,60.70
2023-01-02T06:40:30.708Z,60.73
2023-01-02T06:45:23.598Z,60.41
2023-01-02T06:50:15.301Z,60.47
2023-01-02T06:55:07.266Z,60.68
2023-01-02T06:59:58.924Z,60.92
2023-01-02T07:04:50.487Z,60.95
2023-01-02T07:09:42.023Z,61.67
2023-01-02T07:14:33.595Z,61.96
2023-01-02T07:19:25.537Z,62.07
2023-01-02T07:24:17.126Z,62.31
2023-01-02T07:29:08.851Z,62.63
2023-01-02T07:34:00.500Z,63.13
2023-01-02T07:38:53.101Z,63.18
2023-01-02T07:43:46.172Z,63.00
2023-01-02T07:48:37.788Z,63.58
2023-01-02T15:56:15.242Z,79.57
2023-01-02T16:01:21.739Z,79.78
2023-01-02T16:06:37.098Z,79.20
2023-01-02T16:11:29.799Z,79.24
2023-01-02T16:16:22.549Z,78.64
2023-01-02T16:21:15.815Z,78.81
2023-01-02T16:26:12.188Z,79.19
2023-01-02T16:31:13.396Z,79.69
2023-01-02T16:36:04.923Z,79.47
2023-01-02T16:41:12.397Z,79.08
2023-01-02T16:46:04.411Z,78.94
2023-01-02T16:50:58.327Z,79.32
2023-01-02T16:55:51.768Z,79.57
2023-01-02T17:00:43.956Z,79.43
2023-01-02T17:05:39.605Z,78.84
2023-01-02T17:10:31.540Z,78.08
2023-01-02T17:15:23.215Z,77.30
2023-01-02T17:20:15.761Z,77.07
2023-01-02T17:25:11.008Z,77.33
2023-01-02T17:30:03.214Z,76.88
2023-01-02T17:34:55.276Z,76.55
2023-01-02T17:39:47.697Z,76.80
2023-01-02T17:44:39.255Z,76.84
2023-01-02T17:49:30.884Z,76.84
2023-01-02T17:54:23.861Z,76.62
2023-01-02T17:59:19.172Z,76.90
2023-01-02T18:04:10.958Z,74.66
2023-01-02T18:09:03.699Z,72.90
2023-01-02T18:13:56.541Z,73.49
2023-01-02T18:18:49.515Z,73.84
2023-01-02T18:23:41.919Z,72.48
2023-01-02T18:28:33.513Z,73.05
2023-01-02T18:33:27.588Z,72.59
2023-01-02T18:38:36.218Z,73.21
2023-01-02T18:43:32.189Z,73.35
2023-01-02T18:48:23.799Z,74.34
2023-01-02T18:53:21.400Z,74.65
2023-01-02T18:58:40.816Z,74.63
2023-01-02T19:03:33.907Z,75.23
2023-01-02T19:08:37.809Z,75.41
2023-01-02T19:13:34.478Z,76.37
2023-01-02T19:18:45.114Z,76.39
2023-01-02T19:23:52.694Z,75.87
2023-01-02T19:28:59.900Z,76.56
2023-01-02T19:34:01.767Z,76.24
2023-01-02T19:38:53.433Z,75.65
2023-01-02T19:43:45.091Z,75.69
2023-01-02T19:48:37.308Z,76.00
2023-01-02T19:53:28.942Z,75.94
2023-01-02T19:58:20.629Z,76.02
2023-01-02T20:03:12.321Z,76.15
2023-01-02T20:08:03.951Z,77.04
2023-01-02T20:12:55.681Z,77.32
2023-01-02T20:17:47.688Z,77.77
2023-01-02T20:22:41.284Z,78.80
2023-01-02T20:27:33.040Z,79.52
2023-01-02T20:32:26.061Z,79.68
2023-01-02T20:37:21.054Z,79.31
2023-01-02T20:42:13.763Z,79.12
2023-01-02T20:47:05.734Z,77.60
2023-01-02T20:51:57.885Z,77.62
2023-01-02T20:56:49.782Z,76.92
2023-01-02T21:01:42.544Z,77.86
2023-01-02T21:06:34.421Z,78.31
2023-01-02T21:11:26.795Z,78.76
2023-01-02T21:16:18.732Z,78.02
2023-01-02T21:21:18.380Z,76.91
2023-01-02T21:26:12.395Z,76.22
2023-01-02T21:31:05.021Z,76.30
2023-01-02T21:35:59.130Z,76.38
2023-01-02T21:40:52.307Z,74.93
2023-01-02T21:45:43.938Z,75.06
2023-01-02T21:50:36.372Z,76.49
2023-01-02T21:55:28.221Z,76.33
2023-01-02T22:00:26.159Z,77.73
2023-01-02T22:05:18.853Z,76.68
2023-01-02T22:10:12.032Z,76.57
2023-01-02T22:15:05.689Z,76.99
2023-01-02T22:19:57.472Z,77.10
2023-01-02T22:24:51.057Z,77.45
2023-01-02T22:30:19.599Z,77.21
2023-01-02T22:34:56.436Z,77.06
2023-01-02T22:39:48.639Z,76.93
2023-01-02T22:44:40.849Z,77.34
2023-01-02T22:49:38.179Z,77.66
2023-01-02T22:54:29.831Z,78.29
2023-01-02T22:59:21.454Z,77.78
2023-01-02T23:04:20.641Z,76.74
2023-01-02T23:09:12.710Z,76.93
2023-01-02T23:14:04.837Z,77.80
2023-01-02T23:19:14.576Z,78.95
2023-01-02T23:24:07.124Z,79.08
2023-01-02T23:29:07.443Z,78.93
2023-01-02T23:34:00.796Z,77.95
2023-01-02T23:38:52.484Z,76.28
2023-01-02T23:43:45.035Z,75.88
2023-01-02T23:48:36.564Z,76.23
2023-01-02T23:53:28.735Z,76.77
2023-01-02T23:58:21.361Z,76.63
